createdAt,value
2023-05-19T00:01:49.185Z,10.43
2023-05-19T00:04:47.989Z,10.15
2023-05-19T00:07:46.068Z,9.95
2023-05-19T00:10:43.627Z,9.93
2023-05-19T00:13:40.974Z,9.82
2023-05-19T00:16:39.272Z,9.60
2023-05-19T00:19:36.169Z,9.64
2023-05-19T00:22:33.117Z,9.39
2023-05-19T00:25:29.982Z,9.37
2023-05-19T00:28:26.882Z,9.21
2023-05-19T00:31:24.117Z,9.28
2023-05-19T00:34:20.965Z,9.28
2023-05-19T00:37:17.859Z,9.37
2023-05-19T00:40:14.983Z,8.94
2023-05-19T00:43:13.170Z,8.90
2023-05-19T00:46:11.000Z,9.03
2023-05-19T00:49:08.135Z,8.74
2023-05-19T00:52:07.210Z,8.57
2023-05-19T00:55:04.692Z,8.31
2023-05-19T00:58:02.070Z,8.42
2023-05-19T01:01:04.485Z,8.60
2023-05-19T01:04:04.036Z,8.66
2023-05-19T01:07:01.437Z,8.60
2023-05-19T01:09:58.579Z,8.51
2023-05-19T01:12:55.733Z,8.44
2023-05-19T01:16:17.693Z,8.61
2023-05-19T01:19:52.216Z,8.63
2023-05-19T01:23:30.418Z,8.54
2023-05-19T01:26:54.286Z,8.36
2023-05-19T01:30:25.677Z,8.23
2023-05-19T01:33:43.648Z,8.17
2023-05-19T01:36:44.950Z,7.87
2023-05-19T01:39:44.392Z,7.75
2023-05-19T01:42:42.121Z,7.83
2023-05-19T01:45:40.462Z,7.84
2023-05-19T01:48:38.250Z,7.85
2023-05-19T01:51:35.716Z,7.76
2023-05-19T01:54:32.656Z,7.58
2023-05-19T01:57:59.901Z,7.57
2023-05-19T02:01:23.030Z,7.57
2023-05-19T02:04:51.065Z,7.95
2023-05-19T02:07:58.325Z,8.12
2023-05-19T02:11:07.826Z,7.89
2023-05-19T02:14:22.822Z,7.89
2023-05-19T02:17:23.310Z,7.70
2023-05-19T02:20:22.318Z,7.60
2023-05-19T02:23:19.204Z,7.30
2023-05-19T02:26:16.098Z,7.28
2023-05-19T02:29:13.019Z,7.31
2023-05-19T02:32:11.127Z,7.17
2023-05-19T02:35:08.533Z,6.96
2023-05-19T02:38:05.772Z,7.19
2023-05-19T02:41:02.618Z,7.12
2023-05-19T02:43:59.992Z,7.17
2023-05-19T02:46:56.866Z,7.18
2023-05-19T02:49:53.835Z,6.88
2023-05-19T02:52:50.797Z,7.00
2023-05-19T02:55:47.624Z,7.04
2023-05-19T02:58:44.634Z,6.90
2023-05-19T03:01:41.732Z,7.16
2023-05-19T03:04:41.790Z,7.05
2023-05-19T03:07:38.753Z,6.56
2023-05-19T03:10:36.318Z,6.71
2023-05-19T03:13:33.545Z,6.57
2023-05-19T03:16:30.560Z,6.50
2023-05-19T03:19:27.854Z,6.33
2023-05-19T03:22:24.734Z,6.54
2023-05-19T03:25:21.854Z,6.58
2023-05-19T03:28:18.703Z,6.47
2023-05-19T03:31:16.376Z,6.71
2023-05-19T03:34:13.261Z,6.69
2023-05-19T03:37:10.888Z,6.53
2023-05-19T03:40:08.945Z,6.55
2023-05-19T03:43:05.878Z,6.54
2023-05-19T03:46:02.796Z,6.32
2023-05-19T03:48:59.691Z,6.36
2023-05-19T03:51:56.548Z,6.08
2023-05-19T03:54:53.472Z,6.45
2023-05-19T03:57:50.338Z,6.51
2023-05-19T04:00:47.202Z,6.39
2023-05-19T04:03:44.099Z,6.35
2023-05-19T04:06:41.085Z,6.80
2023-05-19T04:09:38.057Z,6.90
2023-05-19T04:12:34.944Z,6.89
2023-05-19T04:15:31.847Z,6.88
2023-05-19T04:18:29.322Z,7.18
2023-05-19T04:21:26.530Z,7.09
2023-05-19T04:24:23.392Z,6.94
2023-05-19T04:27:21.968Z,6.86
2023-05-19T04:30:22.490Z,7.02
2023-05-19T04:33:21.227Z,7.04
2023-05-19T04:36:21.392Z,7.12
2023-05-19T04:39:18.375Z,7.13
2023-05-19T04:42:19.208Z,7.50
2023-05-19T04:45:16.042Z,7.64
2023-05-19T04:48:13.949Z,7.70
2023-05-19T04:51:14.292Z,7.86
2023-05-19T04:54:11.293Z,7.93
2023-05-19T04:57:08.186Z,8.15
2023-05-19T05:00:09.081Z,8.08
2023-05-19T05:03:07.102Z,8.30
2023-05-19T05:06:04.593Z,8.43
2023-05-19T05:09:03.559Z,8.76
2023-05-19T05:12:02.129Z,8.86
2023-05-19T05:14:59.351Z,8.80
2023-05-19T05:17:56.806Z,9.08
2023-05-19T05:20:54.606Z,9.22
2023-05-19T05:23:52.363Z,9.50
2023-05-19T05:26:49.510Z,9.49
2023-05-19T05:29:46.380Z,9.45
2023-05-19T05:32:43.502Z,9.75
2023-05-19T05:35:40.526Z,10.02
2023-05-19T05:38:37.406Z,9.84
2023-05-19T05:41:36.781Z,10.02
2023-05-19T05:44:35.712Z,10.29
2023-05-19T05:47:32.937Z,10.22
2023-05-19T05:50:30.138Z,10.35
2023-05-19T05:53:32.111Z,10.61
2023-05-19T05:56:29.376Z,10.88
2023-05-19T05:59:27.501Z,10.84
2023-05-19T06:02:24.483Z,10.82
2023-05-19T06:05:21.554Z,10.95
2023-05-19T06:08:18.661Z,10.81
2023-05-19T06:11:15.734Z,11.04
2023-05-19T06:14:12.581Z,11.20
2023-05-19T06:17:09.496Z,11.26
2023-05-19T06:20:08.619Z,11.48
2023-05-19T06:23:05.504Z,11.60
2023-05-19T06:26:02.395Z,11.43
2023-05-19T06:28:59.266Z,11.33
2023-05-19T06:31:56.476Z,11.80
2023-05-19T06:34:56.496Z,11.92
2023-05-19T06:37:53.444Z,11.93
2023-05-19T06:40:50.301Z,12.04
2023-05-19T06:43:47.337Z,12.11
2023-05-19T06:46:44.422Z,12.60
2023-05-19T06:49:41.475Z,12.47
2023-05-19T06:52:38.515Z,12.67
2023-05-19T06:55:41.268Z,12.84
2023-05-19T06:58:44.214Z,12.79
2023-05-19T07:01:41.199Z,13.18
2023-05-19T07:04:38.724Z,12.82
2023-05-19T07:07:35.682Z,13.08
2023-05-19T07:10:32.725Z,13.43
2023-05-19T07:13:29.698Z,13.61
2023-05-19T07:16:26.646Z,14.10
2023-05-19T07:19:24.206Z,13.85
2023-05-19T07:22:22.161Z,13.61
2023-05-19T07:25:19.028Z,13.59
2023-05-19T07:28:16.201Z,13.44
2023-05-19T07:31:13.126Z,13.78
2023-05-19T07:34:10.355Z,13.74
2023-05-19T07:37:07.448Z,13.66
2023-05-19T07:40:06.729Z,13.70
2023-05-19T07:43:03.610Z,14.18
2023-05-19T07:46:00.612Z,14.19
2023-05-19T07:48:57.546Z,14.44
2023-05-19T07:51:54.569Z,14.68
2023-05-19T07:54:51.430Z,14.86
2023-05-19T07:57:48.957Z,15.25
2023-05-19T08:00:46.160Z,15.19
2023-05-19T08:03:43.198Z,15.10
2023-05-19T08:06:42.622Z,14.90
2023-05-19T08:09:39.609Z,15.67
2023-05-19T08:12:36.454Z,16.29
2023-05-19T08:15:36.681Z,16.84
2023-05-19T08:18:33.600Z,17.54
2023-05-19T08:21:34.423Z,17.48
2023-05-19T08:24:32.800Z,17.48
2023-05-19T08:27:30.015Z,17.28
2023-05-19T08:30:28.076Z,17.93
2023-05-19T08:33:24.968Z,18.35
2023-05-19T08:36:22.048Z,18.93
2023-05-19T08:39:24.180Z,18.69
2023-05-19T08:42:21.211Z,18.70
2023-05-19T08:45:18.290Z,18.65
2023-05-19T08:48:18.514Z,19.07
2023-05-19T08:51:33.274Z,17.90
2023-05-19T08:54:40.598Z,18.20
2023-05-19T08:57:46.149Z,18.65
2023-05-19T09:00:44.251Z,18.78
2023-05-19T09:03:42.654Z,18.50
2023-05-19T09:06:42.429Z,18.66
2023-05-19T09:09:43.416Z,19.19
2023-05-19T09:12:41.897Z,18.68
2023-05-19T09:15:41.258Z,19.03
2023-05-19T09:18:42.541Z,18.80
2023-05-19T09:21:40.233Z,19.89
2023-05-19T09:24:38.523Z,18.02
2023-05-19T09:27:35.580Z,20.38
2023-05-19T09:30:33.777Z,20.13
2023-05-19T09:33:33.166Z,19.75
2023-05-19T09:36:31.152Z,19.07
2023-05-19T09:39:28.895Z,19.29
2023-05-19T09:42:27.113Z,19.69
2023-05-19T09:45:27.201Z,19.36
2023-05-19T09:48:27.953Z,19.72
2023-05-19T09:51:25.234Z,20.64
2023-05-19T09:54:24.124Z,20.40
2023-05-19T09:57:29.373Z,20.80
2023-05-19T10:00:27.394Z,19.76
2023-05-19T10:03:25.244Z,19.64
2023-05-19T10:06:22.508Z,19.97
2023-05-19T10:09:26.892Z,19.85
2023-05-19T10:12:26.063Z,19.19
2023-05-19T10:15:23.540Z,18.85
2023-05-19T10:18:22.958Z,19.78
2023-05-19T10:21:19.873Z,18.89
2023-05-19T10:24:17.702Z,21.33
2023-05-19T10:27:16.979Z,20.40
2023-05-19T10:30:25.239Z,21.96
2023-05-19T10:33:41.240Z,20.91
2023-05-19T10:36:54.613Z,21.73
2023-05-19T10:39:52.565Z,22.61
2023-05-19T10:43:35.836Z,21.29
2023-05-19T10:46:32.773Z,19.93
2023-05-19T10:49:34.576Z,19.69
2023-05-19T10:52:36.906Z,18.57
2023-05-19T10:56:08.098Z,18.87
2023-05-19T10:59:04.973Z,19.49
2023-05-19T11:02:06.461Z,18.93
2023-05-19T11:05:16.552Z,19.40
2023-05-19T11:08:13.599Z,19.70
2023-05-19T11:11:19.490Z,20.52
2023-05-19T11:14:20.228Z,19.89
2023-05-19T11:17:19.143Z,19.27
2023-05-19T11:20:39.459Z,20.36
2023-05-19T11:23:39.880Z,20.16
2023-05-19T11:26:43.693Z,19.43
2023-05-19T11:29:42.550Z,19.19
2023-05-19T11:32:42.538Z,19.56
2023-05-19T11:35:41.081Z,19.45
2023-05-19T11:38:38.251Z,18.78
2023-05-19T11:41:39.999Z,19.30
2023-05-19T11:44:38.480Z,19.03
2023-05-19T11:47:45.875Z,19.44
2023-05-19T11:50:48.912Z,18.74
2023-05-19T11:53:48.537Z,19.74
2023-05-19T11:56:46.022Z,19.80
2023-05-19T11:59:48.222Z,20.14
2023-05-19T12:02:45.639Z,19.87
2023-05-19T12:05:48.792Z,19.16
2023-05-19T12:08:46.180Z,19.31
2023-05-19T12:11:43.934Z,18.38
2023-05-19T12:14:40.951Z,19.13
2023-05-19T12:17:37.834Z,18.45
2023-05-19T12:20:38.015Z,18.74
2023-05-19T12:23:35.355Z,19.09
2023-05-19T12:26:32.956Z,19.93
2023-05-19T12:29:31.617Z,20.91
2023-05-19T12:32:31.009Z,21.07
2023-05-19T12:35:36.091Z,20.85
2023-05-19T12:38:34.144Z,21.14
2023-05-19T12:41:31.863Z,20.46
2023-05-19T12:44:28.750Z,20.97
2023-05-19T12:47:36.380Z,21.14
2023-05-19T12:50:34.377Z,21.67
2023-05-19T12:53:33.787Z,21.97
2023-05-19T12:56:30.840Z,22.09
2023-05-19T12:59:38.448Z,21.14
2023-05-19T13:02:54.121Z,20.81
2023-05-19T13:05:51.669Z,20.78
2023-05-19T13:08:48.554Z,21.77
2023-05-19T13:11:52.054Z,22.40
2023-05-19T13:14:48.926Z,21.23
2023-05-19T13:17:46.484Z,21.51
2023-05-19T13:20:46.444Z,22.05
2023-05-19T13:23:43.305Z,21.72
2023-05-19T13:26:41.633Z,22.14
2023-05-19T13:29:38.603Z,23.10
2023-05-19T13:32:35.579Z,22.93
2023-05-19T13:35:37.588Z,22.86
2023-05-19T13:38:34.942Z,23.65
2023-05-19T13:41:32.409Z,21.37
2023-05-19T13:44:29.306Z,21.23
2023-05-19T13:47:26.664Z,20.24
2023-05-19T13:50:23.829Z,21.12
2023-05-19T13:53:20.835Z,20.05
2023-05-19T13:56:17.752Z,21.54
2023-05-19T13:59:15.698Z,21.66
2023-05-19T14:02:12.809Z,21.90
2023-05-19T14:05:09.940Z,23.20
2023-05-19T14:08:06.841Z,22.25
2023-05-19T14:11:03.797Z,21.77
2023-05-19T14:14:00.678Z,22.21
2023-05-19T14:16:57.559Z,22.21
2023-05-19T14:19:54.527Z,21.71
2023-05-19T14:22:51.382Z,22.61
2023-05-19T14:25:48.325Z,22.82
2023-05-19T14:28:46.147Z,22.82
2023-05-19T14:31:43.038Z,22.69
2023-05-19T14:34:39.987Z,21.82
2023-05-19T14:37:36.853Z,22.91
2023-05-19T14:40:34.015Z,22.04
2023-05-19T14:43:31.109Z,21.36
2023-05-19T14:46:28.035Z,21.73
2023-05-19T14:49:25.056Z,21.11
2023-05-19T14:52:22.765Z,22.26
2023-05-19T14:55:19.777Z,22.06
2023-05-19T14:58:27.790Z,21.23
2023-05-19T15:01:26.006Z,20.93
2023-05-19T15:04:23.035Z,21.38
2023-05-19T15:07:20.055Z,21.63
2023-05-19T15:10:24.249Z,21.68
2023-05-19T15:13:21.587Z,21.12
2023-05-19T15:16:18.562Z,22.03
2023-05-19T15:19:15.525Z,21.81
2023-05-19T15:22:12.472Z,22.21
2023-05-19T15:25:10.055Z,21.76
2023-05-19T15:28:06.923Z,22.37
2023-05-19T15:31:03.856Z,21.64
2023-05-19T15:34:00.751Z,21.46
2023-05-19T15:36:57.603Z,21.08
2023-05-19T15:39:55.036Z,21.67
2023-05-19T15:42:51.898Z,21.25
2023-05-19T15:45:48.784Z,20.93
2023-05-19T15:48:45.662Z,20.94
2023-05-19T15:51:42.516Z,20.89
2023-05-19T15:54:39.367Z,19.71
2023-05-19T15:57:36.214Z,19.81
2023-05-19T16:00:33.228Z,19.57
2023-05-19T16:03:30.510Z,20.60
2023-05-19T16:06:27.634Z,19.94
2023-05-19T16:09:24.529Z,19.37
2023-05-19T16:12:21.719Z,19.93
2023-05-19T16:15:18.674Z,20.69
2023-05-19T16:18:18.469Z,20.45
2023-05-19T16:21:15.355Z,19.83
2023-05-19T16:24:12.292Z,20.32
2023-05-19T16:27:09.188Z,20.34
2023-05-19T16:30:07.108Z,19.29
2023-05-19T16:33:04.123Z,18.68
2023-05-19T16:36:01.153Z,18.10
2023-05-19T16:38:58.035Z,18.17
2023-05-19T16:41:54.890Z,18.99
2023-05-19T16:44:51.765Z,18.61
2023-05-19T16:47:48.738Z,19.68
2023-05-19T16:50:49.058Z,19.21
2023-05-19T16:53:46.187Z,18.61
2023-05-19T16:56:43.107Z,18.17
2023-05-19T16:59:40.272Z,18.01
2023-05-19T17:02:37.242Z,18.41
2023-05-19T17:05:35.594Z,17.81
2023-05-19T17:08:32.447Z,18.27
2023-05-19T17:11:29.347Z,17.89
2023-05-19T17:14:26.246Z,18.15
2023-05-19T17:17:23.228Z,18.56
2023-05-19T17:20:20.098Z,17.66
2023-05-19T17:23:16.994Z,17.20
2023-05-19T17:26:13.891Z,18.19
2023-05-19T17:29:10.911Z,17.67
2023-05-19T17:32:07.915Z,17.18
2023-05-19T17:35:08.986Z,17.75
2023-05-19T17:38:05.843Z,17.95
2023-05-19T17:41:04.580Z,17.43
2023-05-19T17:44:02.671Z,17.76
2023-05-19T17:47:00.385Z,17.63
2023-05-19T17:49:57.257Z,16.86
2023-05-19T17:52:54.779Z,16.49
2023-05-19T17:55:57.512Z,16.88
2023-05-19T17:58:54.748Z,17.31
2023-05-19T18:01:51.972Z,16.78
2023-05-19T18:04:49.251Z,16.63
2023-05-19T18:07:46.215Z,16.34
2023-05-19T18:10:43.896Z,16.82
2023-05-19T18:13:40.909Z,16.59
2023-05-19T18:16:37.783Z,16.60
2023-05-19T18:19:34.691Z,16.60
2023-05-19T18:22:31.883Z,16.49
2023-05-19T18:25:28.755Z,16.93
2023-05-19T18:28:25.644Z,16.40
2023-05-19T18:31:22.537Z,16.01
2023-05-19T18:34:19.463Z,15.95
2023-05-19T18:37:17.228Z,16.07
2023-05-19T18:40:14.185Z,16.10
2023-05-19T18:43:11.053Z,15.85
2023-05-19T18:46:07.939Z,16.11
2023-05-19T18:49:05.119Z,15.91
2023-05-19T18:52:01.972Z,15.62
2023-05-19T18:55:00.774Z,15.64
2023-05-19T18:57:57.634Z,15.38
2023-05-19T19:00:57.823Z,15.53
2023-05-19T19:03:54.703Z,15.58
2023-05-19T19:06:52.377Z,15.07
2023-05-19T19:09:49.229Z,15.41
2023-05-19T19:12:46.095Z,15.23
2023-05-19T19:15:42.945Z,15.51
2023-05-19T19:18:39.910Z,15.60
2023-05-19T19:21:36.882Z,15.67
2023-05-19T19:24:33.808Z,15.35
2023-05-19T19:27:31.480Z,15.00
2023-05-19T19:30:29.651Z,15.36
2023-05-19T19:33:26.509Z,15.30
2023-05-19T19:36:23.376Z,14.75
2023-05-19T19:39:20.574Z,15.32
2023-05-19T19:42:17.990Z,15.23
2023-05-19T19:45:15.880Z,14.90
2023-05-19T19:48:12.928Z,15.13
2023-05-19T19:51:09.896Z,15.25
2023-05-19T19:54:06.769Z,15.04
2023-05-19T19:57:04.011Z,15.22
2023-05-19T20:00:08.300Z,14.43
2023-05-19T20:03:06.004Z,14.83
2023-05-19T20:06:03.366Z,14.95
2023-05-19T20:09:00.408Z,14.74
2023-05-19T20:11:57.247Z,14.91
2023-05-19T20:14:54.427Z,15.35
2023-05-19T20:17:51.312Z,14.59
2023-05-19T20:20:48.168Z,14.75
2023-05-19T20:23:45.033Z,15.11
2023-05-19T20:26:41.875Z,14.91
2023-05-19T20:29:38.763Z,14.61
2023-05-19T20:32:36.005Z,14.37
2023-05-19T20:35:33.258Z,14.90
2023-05-19T20:38:30.344Z,14.65
2023-05-19T20:41:27.403Z,14.59
2023-05-19T20:44:24.288Z,14.27
2023-05-19T20:47:21.164Z,14.45
2023-05-19T20:50:18.188Z,14.45
2023-05-19T20:53:15.734Z,14.48
2023-05-19T20:56:13.039Z,14.44
2023-05-19T20:59:09.944Z,14.57
2023-05-19T21:02:07.628Z,14.25
2023-05-19T21:05:05.075Z,14.35
2023-05-19T21:08:02.466Z,14.52
2023-05-19T21:10:59.430Z,14.43
2023-05-19T21:13:56.328Z,14.61
2023-05-19T21:16:56.475Z,14.27
2023-05-19T21:19:57.760Z,14.17
2023-05-19T21:22:55.421Z,14.29
2023-05-19T21:25:52.345Z,14.39
2023-05-19T21:28:49.225Z,14.28
2023-05-19T21:31:46.077Z,14.18
2023-05-19T21:34:42.949Z,14.32
2023-05-19T21:37:39.806Z,14.13
2023-05-19T21:40:36.699Z,14.29
2023-05-19T21:43:33.673Z,13.92
2023-05-19T21:46:30.591Z,13.95
2023-05-19T21:49:27.462Z,13.82
2023-05-19T21:52:24.397Z,14.07
2023-05-19T21:55:22.033Z,14.28
2023-05-19T21:58:19.075Z,13.92
2023-05-19T22:01:15.938Z,13.77
2023-05-19T22:04:14.309Z,13.89
2023-05-19T22:07:11.959Z,14.03
2023-05-19T22:10:10.040Z,14.29
2023-05-19T22:13:07.205Z,14.00
2023-05-19T22:16:04.961Z,14.17
2023-05-19T22:19:01.878Z,13.93
2023-05-19T22:22:05.814Z,13.86
2023-05-19T22:25:09.893Z,13.70
2023-05-19T22:28:08.052Z,13.65
2023-05-19T22:31:05.131Z,13.68
2023-05-19T22:34:02.052Z,13.50
2023-05-19T22:36:58.958Z,13.48
2023-05-19T22:39:55.886Z,13.86
2023-05-19T22:42:52.740Z,13.73
2023-05-19T22:45:49.693Z,13.38
2023-05-19T22:48:46.706Z,13.92
2023-05-19T22:51:43.552Z,14.00
2023-05-19T22:54:40.483Z,13.96
2023-05-19T22:57:37.356Z,13.75
2023-05-19T23:00:34.270Z,13.73
2023-05-19T23:03:31.198Z,13.61
2023-05-19T23:06:28.051Z,13.60
2023-05-19T23:09:24.941Z,13.72
2023-05-19T23:12:21.792Z,13.37
2023-05-19T23:15:18.668Z,13.41
2023-05-19T23:18:15.625Z,13.53
2023-05-19T23:21:12.614Z,13.71
2023-05-19T23:24:09.493Z,13.74
2023-05-19T23:27:06.534Z,13.78
2023-05-19T23:30:04.133Z,13.45
2023-05-19T23:33:01.071Z,13.52
2023-05-19T23:35:59.215Z,13.66
2023-05-19T23:38:56.097Z,13.71
2023-05-19T23:41:52.965Z,13.75
2023-05-19T23:44:49.916Z,13.29
2023-05-19T23:47:46.775Z,13.44
2023-05-19T23:50:43.691Z,13.37
2023-05-19T23:53:40.731Z,13.86
2023-05-19T23:56:37.612Z,13.47
2023-05-19T23:59:34.658Z,13.21
